Time;durP1;ratioP1;P1;durP2;ratioP2;P2;SDS_P1;SDS_P2;PMS_P1;PMS_P2;Temp;Humidity;BMP_temperature;BMP_pressure;BME280_temperature;BME280_humidity;BME280_pressure;Samples;Min_cycle;Max_cycle;Signal;HPM_P1;HPM_P2
2022/09/11 04:02:12;;;;;;;11.33;8.90;;;16.10;99.90;;;;;;5183450;23;20644;-74
2022/09/11 04:04:40;;;;;;;7.83;7.00;;;16.10;99.90;;;;;;4991225;28;20461;-74
2022/09/11 04:07:07;;;;;;;16.33;10.73;;;16.10;99.90;;;;;;4990853;28;20491;-74
2022/09/11 04:09:33;;;;;;;9.67;8.20;;;16.10;99.90;;;;;;4982226;28;20470;-74
2022/09/11 04:12:01;;;;;;;12.50;8.70;;;16.10;99.90;;;;;;4956668;28;20484;-74
2022/09/11 04:14:28;;;;;;;15.57;9.93;;;16.10;99.90;;;;;;4952607;28;20978;-75
2022/09/11 04:16:55;;;;;;;13.33;7.97;;;16.10;99.90;;;;;;4953292;28;20472;-73
2022/09/11 04:19:23;;;;;;;10.70;8.47;;;16.10;99.90;;;;;;4952532;28;20911;-74
2022/09/11 04:21:49;;;;;;;11.97;9.50;;;16.10;99.90;;;;;;4952717;28;20494;-73
2022/09/11 04:24:16;;;;;;;17.23;9.00;;;16.00;99.90;;;;;;4952432;28;20475;-73
2022/09/11 04:26:44;;;;;;;17.40;11.13;;;16.00;99.90;;;;;;4952268;28;21005;-73
2022/09/11 04:29:10;;;;;;;13.77;7.80;;;16.00;99.90;;;;;;4952367;28;21026;-73
2022/09/11 04:31:37;;;;;;;12.00;8.50;;;16.00;99.90;;;;;;4955316;28;20492;-73
2022/09/11 04:34:04;;;;;;;16.33;9.53;;;16.00;99.90;;;;;;4961675;28;20471;-73
2022/09/11 04:36:32;;;;;;;17.60;10.57;;;16.00;99.90;;;;;;4971120;28;20468;-73
2022/09/11 04:38:59;;;;;;;11.20;7.77;;;15.90;99.90;;;;;;4957770;28;20464;-73
2022/09/11 04:41:26;;;;;;;14.70;8.57;;;15.90;99.90;;;;;;4952990;28;20491;-73
2022/09/11 04:43:55;;;;;;;14.80;7.80;;;15.90;99.90;;;;;;4969725;28;20601;-73
2022/09/11 04:46:23;;;;;;;11.67;8.27;;;15.90;99.90;;;;;;4971021;28;20472;-75
2022/09/11 04:48:51;;;;;;;15.23;10.33;;;15.90;99.90;;;;;;4959826;28;20465;-73
2022/09/11 04:51:21;;;;;;;18.67;10.90;;;15.90;99.90;;;;;;4957390;28;20515;-73
2022/09/11 04:53:50;;;;;;;11.37;7.90;;;15.90;99.90;;;;;;4975339;28;20468;-74
2022/09/11 04:56:19;;;;;;;11.60;7.47;;;15.90;99.90;;;;;;4959587;28;20470;-74
2022/09/11 04:58:47;;;;;;;14.37;8.50;;;15.90;99.90;;;;;;4960975;28;20491;-74
2022/09/11 05:01:16;;;;;;;12.57;9.97;;;15.90;99.90;;;;;;4974317;28;20507;-73
2022/09/11 05:03:43;;;;;;;13.43;8.57;;;15.90;99.90;;;;;;4964937;28;20464;-73
2022/09/11 05:06:15;;;;;;;18.97;11.77;;;15.90;99.90;;;;;;4972391;28;20463;-74
2022/09/11 05:08:43;;;;;;;14.33;10.43;;;15.90;99.90;;;;;;4975435;28;20559;-73
2022/09/11 05:11:13;;;;;;;17.63;9.87;;;15.90;99.90;;;;;;4974175;28;20860;-73
2022/09/11 05:13:41;;;;;;;16.70;8.90;;;15.80;99.90;;;;;;4964166;28;20461;-72
2022/09/11 05:16:09;;;;;;;15.47;9.30;;;15.80;99.90;;;;;;4956506;28;20475;-73
2022/09/11 05:18:36;;;;;;;15.80;8.10;;;15.80;99.90;;;;;;4956143;28;20466;-73
2022/09/11 05:21:05;;;;;;;11.53;8.60;;;15.90;99.90;;;;;;4961251;28;20494;-72
2022/09/11 05:23:33;;;;;;;10.93;8.30;;;15.90;99.90;;;;;;4972021;28;20472;-72
2022/09/11 05:26:01;;;;;;;16.77;9.40;;;15.80;99.90;;;;;;4955563;28;20474;-72
2022/09/11 05:28:30;;;;;;;13.37;9.03;;;15.80;99.90;;;;;;4955651;28;20534;-72
2022/09/11 05:30:58;;;;;;;12.90;9.80;;;15.70;99.90;;;;;;4960275;28;20868;-74
2022/09/11 05:33:27;;;;;;;13.60;8.20;;;15.80;99.90;;;;;;4965087;28;20467;-72
2022/09/11 05:35:54;;;;;;;11.17;7.10;;;15.80;99.90;;;;;;4955709;28;20472;-72
2022/09/11 05:38:22;;;;;;;11.17;7.53;;;15.80;99.90;;;;;;4955032;28;20474;-72
2022/09/11 05:40:51;;;;;;;13.73;6.77;;;15.80;99.90;;;;;;4957594;28;20488;-73
2022/09/11 05:43:18;;;;;;;12.33;7.63;;;15.70;99.90;;;;;;4974141;28;20462;-72
2022/09/11 05:45:54;;;;;;;14.57;7.63;;;15.70;99.90;;;;;;4955336;28;20468;-72
2022/09/11 05:48:21;;;;;;;11.20;6.13;;;15.70;99.90;;;;;;4955300;28;21495;-72
2022/09/11 05:50:53;;;;;;;12.20;8.13;;;15.60;99.90;;;;;;4957923;28;20503;-72
2022/09/11 05:53:20;;;;;;;13.70;7.27;;;15.70;99.90;;;;;;4967065;28;20817;-74
2022/09/11 05:55:47;;;;;;;15.37;8.93;;;15.70;99.90;;;;;;4966434;28;20474;-72
2022/09/11 05:58:14;;;;;;;18.10;7.70;;;15.70;99.90;;;;;;4974597;28;21009;-72
2022/09/11 06:00:43;;;;;;;10.30;7.33;;;15.70;99.90;;;;;;4973121;28;20619;-72
2022/09/11 06:03:12;;;;;;;14.30;7.10;;;15.70;99.90;;;;;;4974138;28;20840;-72
2022/09/11 06:05:38;;;;;;;15.00;6.10;;;15.70;99.90;;;;;;4955211;28;20479;-73
2022/09/11 06:08:05;;;;;;;17.00;8.30;;;15.70;99.90;;;;;;4954565;28;20509;-72
2022/09/11 06:10:32;;;;;;;9.27;6.80;;;15.70;99.90;;;;;;4955147;28;20490;-72
2022/09/11 06:12:59;;;;;;;10.67;7.70;;;15.70;99.90;;;;;;4970632;28;20474;-72
2022/09/11 06:15:26;;;;;;;11.97;7.67;;;15.70;99.90;;;;;;4964956;28;20548;-72
2022/09/11 06:17:53;;;;;;;10.27;6.10;;;15.70;99.90;;;;;;4954790;28;20815;-73
2022/09/11 06:20:21;;;;;;;10.83;6.33;;;15.70;99.90;;;;;;4955085;28;20817;-73
2022/09/11 06:22:47;;;;;;;17.40;6.50;;;15.80;99.90;;;;;;4971561;28;20479;-74
2022/09/11 06:25:14;;;;;;;13.03;6.40;;;15.80;99.90;;;;;;4958465;28;20487;-73
2022/09/11 06:27:43;;;;;;;13.30;6.67;;;15.80;99.90;;;;;;4954469;28;20492;-73
2022/09/11 06:30:11;;;;;;;12.30;6.30;;;15.80;99.90;;;;;;4954845;28;20473;-74
2022/09/11 06:32:38;;;;;;;8.57;6.70;;;15.80;99.90;;;;;;4971203;28;20486;-74
2022/09/11 06:35:06;;;;;;;9.83;5.23;;;15.80;99.90;;;;;;4959396;28;20801;-73
2022/09/11 06:37:34;;;;;;;7.30;5.63;;;15.70;99.90;;;;;;4954202;28;20810;-74
2022/09/11 06:40:01;;;;;;;8.77;5.67;;;15.70;99.90;;;;;;4954639;28;20475;-73
2022/09/11 06:42:29;;;;;;;14.30;6.70;;;15.70;99.90;;;;;;4966824;28;20501;-73
2022/09/11 06:44:56;;;;;;;7.57;5.53;;;15.70;99.90;;;;;;4962430;28;20474;-73
2022/09/11 06:47:23;;;;;;;10.03;6.40;;;15.70;99.90;;;;;;4971311;28;20685;-73
2022/09/11 06:49:49;;;;;;;6.30;4.20;;;15.70;99.90;;;;;;4973919;28;20472;-72
2022/09/11 06:52:16;;;;;;;12.23;5.50;;;15.70;99.90;;;;;;4970217;28;21103;-72
2022/09/11 06:54:44;;;;;;;10.10;7.07;;;15.70;99.90;;;;;;4973927;28;20476;-72
2022/09/11 06:57:11;;;;;;;5.83;4.30;;;15.60;99.90;;;;;;4973253;28;20474;-72
2022/09/11 06:59:38;;;;;;;4.30;3.77;;;15.60;99.90;;;;;;4973513;28;20814;-73
2022/09/11 07:02:05;;;;;;;9.73;3.83;;;15.60;99.90;;;;;;4970830;28;20497;-72
2022/09/11 07:04:31;;;;;;;7.00;4.10;;;15.60;99.90;;;;;;4964762;28;20462;-73
2022/09/11 07:06:58;;;;;;;14.87;5.00;;;15.70;99.90;;;;;;4954435;28;20466;-73
2022/09/11 07:09:25;;;;;;;12.40;5.67;;;15.70;99.90;;;;;;4955481;28;20476;-73
2022/09/11 07:11:53;;;;;;;9.10;4.37;;;15.70;99.90;;;;;;4963725;28;20585;-74
2022/09/11 07:14:20;;;;;;;11.30;5.83;;;15.80;99.90;;;;;;4965263;28;20473;-74
2022/09/11 07:16:49;;;;;;;12.30;6.67;;;15.80;99.90;;;;;;4954406;28;20476;-72
2022/09/11 07:19:17;;;;;;;8.57;4.43;;;15.80;99.90;;;;;;4953897;28;21119;-73
2022/09/11 07:21:44;;;;;;;9.00;4.53;;;15.80;99.90;;;;;;4962554;28;20876;-72
2022/09/11 07:24:11;;;;;;;8.20;5.60;;;15.90;99.90;;;;;;4965178;28;20475;-73
2022/09/11 07:26:38;;;;;;;5.90;5.40;;;15.80;99.90;;;;;;4953643;28;20468;-72
2022/09/11 07:29:06;;;;;;;4.03;3.70;;;15.80;99.90;;;;;;4954140;28;20490;-72
2022/09/11 07:31:33;;;;;;;8.20;4.70;;;15.90;99.90;;;;;;4958439;28;20497;-73
2022/09/11 07:34:01;;;;;;;8.93;5.67;;;15.90;99.90;;;;;;4967269;28;20463;-73
2022/09/11 07:36:29;;;;;;;9.73;4.77;;;16.00;99.90;;;;;;4972850;28;20477;-73
2022/09/11 07:38:58;;;;;;;3.83;3.43;;;16.20;99.90;;;;;;4972655;28;20491;-73
2022/09/11 07:41:27;;;;;;;7.10;3.60;;;16.30;99.90;;;;;;4966766;28;20531;-75
2022/09/11 07:43:56;;;;;;;2.70;2.50;;;16.40;99.90;;;;;;4959259;28;20520;-73
2022/09/11 07:46:25;;;;;;;4.00;3.60;;;16.30;99.90;;;;;;4962267;28;20496;-73
2022/09/11 07:48:52;;;;;;;5.17;3.17;;;16.30;99.90;;;;;;4953446;28;20494;-74
2022/09/11 07:51:19;;;;;;;3.37;3.07;;;16.40;99.90;;;;;;4953043;28;20487;-74
2022/09/11 07:53:48;;;;;;;3.70;3.40;;;16.30;99.90;;;;;;4952676;28;20842;-73
2022/09/11 07:56:19;;;;;;;3.10;2.87;;;16.30;99.90;;;;;;4969084;28;20464;-73
2022/09/11 07:58:46;;;;;;;4.43;4.00;;;16.30;99.90;;;;;;4953097;28;20474;-73
2022/09/11 08:01:16;;;;;;;3.80;3.50;;;16.40;99.90;;;;;;4953211;28;20500;-73
2022/09/11 08:03:44;;;;;;;3.80;3.20;;;16.40;99.90;;;;;;4952976;28;20476;-73
2022/09/11 08:06:13;;;;;;;3.60;2.80;;;16.40;99.90;;;;;;4968936;28;20588;-73
2022/09/11 08:08:41;;;;;;;2.40;2.20;;;16.40;99.90;;;;;;4970431;28;20494;-74
2022/09/11 08:11:09;;;;;;;3.60;3.30;;;16.60;99.90;;;;;;4958115;29;20497;-74
2022/09/11 08:13:36;;;;;;;3.07;2.83;;;16.60;99.90;;;;;;4955367;28;20471;-74
2022/09/11 08:16:03;;;;;;;3.10;3.00;;;16.60;99.90;;;;;;4968076;28;20473;-73
2022/09/11 08:18:30;;;;;;;2.63;2.50;;;16.70;99.90;;;;;;4954503;28;20484;-73
2022/09/11 08:21:03;;;;;;;2.73;2.53;;;16.80;99.90;;;;;;4953009;28;20487;-73
2022/09/11 08:23:31;;;;;;;3.13;3.03;;;16.80;99.90;;;;;;4952029;28;20478;-74
2022/09/11 08:26:04;;;;;;;3.53;2.30;;;16.90;99.90;;;;;;4966767;28;20474;-73
2022/09/11 08:28:31;;;;;;;2.60;2.40;;;17.00;99.90;;;;;;4961906;28;21013;-73
2022/09/11 08:30:58;;;;;;;3.63;3.43;;;17.00;99.90;;;;;;4953339;28;20510;-73
2022/09/11 08:33:25;;;;;;;2.47;2.37;;;17.20;99.90;;;;;;4952752;28;20467;-73
2022/09/11 08:35:52;;;;;;;2.03;1.97;;;17.20;99.90;;;;;;4965580;28;20816;-73
2022/09/11 08:38:20;;;;;;;2.50;2.40;;;17.20;99.90;;;;;;4971024;28;20470;-73
2022/09/11 08:40:47;;;;;;;3.47;3.17;;;17.30;99.90;;;;;;4952286;28;20494;-74
2022/09/11 08:43:22;;;;;;;2.00;2.00;;;17.40;99.90;;;;;;4952480;28;20465;-74
2022/09/11 08:45:51;;;;;;;2.23;2.13;;;17.40;99.90;;;;;;4964602;28;20477;-74
2022/09/11 08:48:21;;;;;;;2.30;2.23;;;17.50;99.90;;;;;;4970196;28;20516;-74
2022/09/11 08:50:48;;;;;;;3.57;3.33;;;17.50;99.90;;;;;;4952604;28;21004;-74
2022/09/11 08:53:18;;;;;;;3.03;2.80;;;17.50;99.90;;;;;;4951909;28;20561;-74
2022/09/11 08:55:50;;;;;;;2.70;2.67;;;17.50;99.90;;;;;;4959870;28;20527;-73
2022/09/11 08:58:26;;;;;;;1.80;1.80;;;17.50;99.90;;;;;;4960138;28;20483;-74
2022/09/11 09:01:02;;;;;;;3.50;3.20;;;17.60;99.90;;;;;;4952014;28;20488;-73
2022/09/11 09:04:00;;;;;;;2.33;2.23;;;17.60;99.90;;;;;;4960370;28;20478;-74
2022/09/11 09:06:48;;;;;;;3.10;3.00;;;17.60;99.90;;;;;;4963748;28;20508;-72
2022/09/11 09:09:24;;;;;;;2.80;2.70;;;17.60;99.90;;;;;;4971501;28;20554;-72
2022/09/11 09:11:57;;;;;;;2.93;2.73;;;17.80;99.90;;;;;;4971190;28;20490;-72
2022/09/11 09:15:08;;;;;;;3.20;2.93;;;17.90;99.90;;;;;;4970526;28;20558;-73
2022/09/11 09:17:41;;;;;;;3.33;3.13;;;18.10;99.90;;;;;;4911838;29;20480;-73
2022/09/11 09:20:12;;;;;;;3.23;2.93;;;18.30;99.90;;;;;;4944466;28;20472;-73
2022/09/11 09:22:45;;;;;;;2.83;2.63;;;18.40;99.90;;;;;;4963350;28;20472;-73
2022/09/11 09:25:14;;;;;;;2.53;2.40;;;18.60;99.90;;;;;;4971218;28;20463;-73
2022/09/11 09:27:46;;;;;;;2.47;2.37;;;18.60;99.90;;;;;;4970778;28;20467;-73
2022/09/11 09:30:16;;;;;;;3.23;3.03;;;18.60;99.90;;;;;;4963718;28;20569;-73
2022/09/11 09:32:49;;;;;;;2.70;2.60;;;18.50;99.90;;;;;;4963199;28;20522;-73
2022/09/11 09:35:20;;;;;;;2.80;2.70;;;18.60;99.90;;;;;;4964004;28;20561;-73
2022/09/11 09:37:47;;;;;;;2.30;2.20;;;18.60;99.90;;;;;;4955612;28;20469;-73
2022/09/11 09:40:16;;;;;;;3.07;2.97;;;18.80;99.90;;;;;;4955975;28;20582;-74
2022/09/11 09:43:14;;;;;;;3.10;2.97;;;18.90;99.90;;;;;;4966253;28;20476;-74
2022/09/11 09:45:50;;;;;;;3.10;3.00;;;18.90;99.90;;;;;;4975113;28;20464;-72
2022/09/11 09:48:17;;;;;;;3.10;3.00;;;18.80;99.90;;;;;;4975122;28;20475;-73
2022/09/11 09:50:44;;;;;;;2.70;2.60;;;18.80;99.90;;;;;;4974607;28;20587;-73
2022/09/11 09:53:19;;;;;;;2.80;2.60;;;18.80;99.90;;;;;;4973843;28;20468;-73
2022/09/11 09:55:46;;;;;;;4.27;3.83;;;18.80;99.90;;;;;;4967184;28;20902;-72
2022/09/11 09:58:14;;;;;;;3.80;3.50;;;18.90;99.90;;;;;;4974809;28;20465;-72
2022/09/11 10:00:41;;;;;;;4.30;3.30;;;19.00;99.90;;;;;;4974742;28;20492;-73
2022/09/11 10:03:20;;;;;;;4.17;3.87;;;19.30;99.90;;;;;;4972970;28;20472;-73
2022/09/11 10:05:48;;;;;;;3.50;3.40;;;19.50;99.90;;;;;;4974519;28;20933;-73
2022/09/11 10:08:36;;;;;;;3.40;3.27;;;19.50;99.90;;;;;;4974083;28;20524;-72
2022/09/11 10:11:05;;;;;;;2.30;2.20;;;19.40;99.90;;;;;;4954687;28;20959;-71
2022/09/11 10:13:36;;;;;;;2.60;2.60;;;19.30;99.90;;;;;;4970870;28;20467;-72
2022/09/11 10:16:18;;;;;;;2.50;2.33;;;19.20;99.90;;;;;;4988278;23;20828;-68
2022/09/11 10:18:45;;;;;;;2.57;2.47;;;19.10;99.90;;;;;;4966510;28;20497;-69
2022/09/11 10:21:22;;;;;;;1.97;1.97;;;19.00;99.90;;;;;;4962860;28;20478;-68
2022/09/11 10:23:53;;;;;;;1.90;1.90;;;18.90;99.90;;;;;;4973751;28;20537;-69
2022/09/11 10:26:24;;;;;;;2.30;2.20;;;18.90;99.90;;;;;;4968664;28;20501;-69
2022/09/11 10:28:54;;;;;;;2.53;2.53;;;19.00;99.90;;;;;;4966032;28;20486;-69
2022/09/11 10:31:22;;;;;;;1.90;1.90;;;19.00;99.90;;;;;;4974045;28;20468;-69
2022/09/11 10:33:55;;;;;;;2.13;2.13;;;19.20;99.90;;;;;;4973975;28;20927;-69
2022/09/11 10:36:24;;;;;;;1.67;1.60;;;19.40;99.90;;;;;;4969627;28;20586;-69
2022/09/11 10:38:51;;;;;;;1.67;1.67;;;19.60;99.90;;;;;;4965011;28;20487;-69
2022/09/11 10:41:22;;;;;;;2.40;2.33;;;19.60;99.90;;;;;;4965669;28;20460;-69
2022/09/11 10:43:55;;;;;;;1.67;1.67;;;19.70;99.90;;;;;;4973760;28;20479;-69
2022/09/11 10:46:33;;;;;;;1.90;1.90;;;19.70;99.90;;;;;;4968007;28;20497;-69
2022/09/11 10:49:08;;;;;;;1.90;1.90;;;19.80;99.90;;;;;;4965517;28;20475;-70
2022/09/11 10:51:37;;;;;;;1.83;1.73;;;19.90;99.90;;;;;;4974001;28;20502;-68
2022/09/11 10:54:12;;;;;;;1.57;1.57;;;19.80;99.90;;;;;;4973017;28;20531;-70
2022/09/11 10:56:46;;;;;;;1.30;1.30;;;19.80;99.90;;;;;;4968859;28;20496;-69
2022/09/11 10:59:21;;;;;;;1.50;1.50;;;19.90;99.90;;;;;;4965318;28;21169;-69
2022/09/11 11:01:49;;;;;;;1.40;1.40;;;20.00;99.90;;;;;;4973653;28;20527;-68
2022/09/11 11:04:15;;;;;;;1.33;1.33;;;20.20;99.90;;;;;;4973209;28;20835;-68
2022/09/11 11:06:58;;;;;;;0.90;0.90;;;20.30;99.90;;;;;;4966081;28;20490;-69
2022/09/11 11:09:38;;;;;;;0.90;0.90;;;20.30;99.90;;;;;;4971615;28;20553;-68
2022/09/11 11:12:19;;;;;;;1.30;1.30;;;20.10;99.90;;;;;;4972720;28;20556;-69
2022/09/11 11:15:04;;;;;;;1.77;1.77;;;20.10;99.90;;;;;;4973312;28;20932;-69
2022/09/11 11:17:37;;;;;;;1.90;1.90;;;20.00;99.90;;;;;;4962618;28;20504;-69
2022/09/11 11:20:22;;;;;;;1.47;1.47;;;20.10;99.90;;;;;;4973143;28;20459;-69
2022/09/11 11:23:13;;;;;;;1.20;1.20;;;20.10;99.90;;;;;;4972647;28;20463;-69
2022/09/11 11:25:46;;;;;;;1.40;1.40;;;20.10;99.90;;;;;;4970194;28;20939;-70
2022/09/11 11:28:27;;;;;;;2.50;1.70;;;20.10;99.90;;;;;;4964993;28;20468;-69
2022/09/11 11:31:05;;;;;;;1.80;1.70;;;20.20;99.90;;;;;;4957587;28;20480;-70
2022/09/11 11:33:51;;;;;;;1.50;1.50;;;20.40;99.90;;;;;;4953363;28;20461;-70
2022/09/11 11:36:26;;;;;;;1.67;1.60;;;20.40;99.90;;;;;;4961587;28;20881;-69
2022/09/11 11:38:59;;;;;;;1.07;1.07;;;20.40;99.90;;;;;;4959706;28;20480;-70
2022/09/11 11:41:29;;;;;;;1.50;1.50;;;20.50;99.90;;;;;;4970214;28;20552;-70
2022/09/11 11:43:57;;;;;;;1.20;1.20;;;20.50;99.90;;;;;;4972407;28;20934;-70
2022/09/11 11:46:29;;;;;;;2.03;1.93;;;20.40;99.90;;;;;;4967139;28;21191;-70
2022/09/11 11:49:00;;;;;;;1.20;1.20;;;20.30;99.90;;;;;;4966656;28;20549;-70
2022/09/11 11:51:32;;;;;;;1.37;1.33;;;20.20;99.90;;;;;;4972377;28;20484;-70
2022/09/11 11:54:05;;;;;;;1.67;1.67;;;20.10;99.90;;;;;;4972018;28;20491;-71
2022/09/11 11:56:39;;;;;;;1.23;1.23;;;20.10;99.90;;;;;;4967438;28;20582;-70
2022/09/11 11:59:14;;;;;;;0.70;0.70;;;20.10;99.90;;;;;;4953018;28;20469;-70
2022/09/11 12:01:47;;;;;;;5.17;1.40;;;20.00;99.90;;;;;;4953099;28;20483;-70
2022/09/11 12:04:24;;;;;;;1.10;1.10;;;20.10;99.90;;;;;;4952530;28;20476;-70
2022/09/11 12:06:51;;;;;;;1.33;1.33;;;20.30;99.90;;;;;;4959752;28;20492;-70
2022/09/11 12:09:18;;;;;;;1.27;1.27;;;20.50;99.90;;;;;;4959622;28;20496;-70
2022/09/11 12:11:49;;;;;;;1.30;1.30;;;20.50;99.90;;;;;;4971764;28;21002;-70
2022/09/11 12:14:26;;;;;;;1.40;1.40;;;20.60;99.90;;;;;;4972042;28;20471;-70
2022/09/11 12:16:56;;;;;;;1.70;1.70;;;20.70;99.90;;;;;;4962540;28;20559;-70
2022/09/11 12:19:24;;;;;;;0.90;0.90;;;20.70;99.90;;;;;;4954988;28;20469;-70
2022/09/11 12:22:11;;;;;;;1.17;1.17;;;20.90;99.90;;;;;;4965685;28;20507;-70
2022/09/11 12:24:57;;;;;;;1.20;1.20;;;21.00;99.90;;;;;;4972016;28;20527;-71
2022/09/11 12:27:51;;;;;;;1.00;1.00;;;21.10;99.90;;;;;;4968794;28;20488;-70
2022/09/11 12:30:24;;;;;;;1.40;1.40;;;21.20;99.90;;;;;;4957774;28;20497;-70
2022/09/11 12:32:53;;;;;;;1.40;1.30;;;21.30;99.90;;;;;;4963404;28;20500;-70
2022/09/11 12:35:29;;;;;;;1.20;1.20;;;21.40;99.90;;;;;;4972011;28;20473;-70
2022/09/11 12:38:04;;;;;;;0.80;0.80;;;21.40;99.90;;;;;;4971534;28;20511;-70
2022/09/11 12:40:37;;;;;;;1.10;1.10;;;21.60;99.90;;;;;;4962287;28;20470;-70
2022/09/11 12:43:44;;;;;;;1.07;1.07;;;21.60;99.90;;;;;;4956425;28;20882;-69
2022/09/11 12:46:13;;;;;;;1.30;1.30;;;21.70;99.90;;;;;;4948904;28;20525;-70
2022/09/11 12:48:43;;;;;;;1.90;0.97;;;21.80;99.90;;;;;;4952199;28;20564;-70
2022/09/11 12:51:20;;;;;;;0.87;0.87;;;21.90;99.90;;;;;;4959714;28;20835;-71
2022/09/11 12:53:50;;;;;;;0.77;0.77;;;21.90;99.90;;;;;;4932640;29;20471;-70
2022/09/11 12:56:20;;;;;;;0.80;0.80;;;21.80;99.90;;;;;;4933037;29;20488;-71
2022/09/11 12:58:53;;;;;;;0.80;0.80;;;21.80;99.90;;;;;;4939616;28;20471;-70
2022/09/11 13:01:24;;;;;;;1.00;1.00;;;21.80;99.90;;;;;;4960883;28;20490;-70
2022/09/11 13:03:58;;;;;;;0.73;0.73;;;21.90;99.90;;;;;;4971906;28;20496;-70
2022/09/11 13:06:37;;;;;;;0.80;0.80;;;22.00;99.90;;;;;;4971743;28;20497;-70
2022/09/11 13:09:05;;;;;;;0.67;0.67;;;22.20;99.90;;;;;;4964589;28;20598;-70
2022/09/11 13:11:41;;;;;;;0.80;0.80;;;22.30;99.90;;;;;;4965104;28;20996;-70
2022/09/11 13:14:50;;;;;;;0.60;0.60;;;22.30;99.90;;;;;;4975490;28;20466;-70
2022/09/11 13:17:24;;;;;;;0.80;0.80;;;22.30;99.90;;;;;;4975174;28;21119;-70
2022/09/11 13:19:56;;;;;;;0.70;0.70;;;22.20;99.90;;;;;;4967611;28;20588;-70
2022/09/11 13:22:26;;;;;;;0.67;0.67;;;22.10;99.90;;;;;;4958634;28;20470;-70
2022/09/11 13:25:05;;;;;;;0.70;0.70;;;22.20;99.90;;;;;;4962774;28;20459;-70
2022/09/11 13:27:36;;;;;;;0.90;0.90;;;22.20;99.90;;;;;;4955555;28;20976;-70
2022/09/11 13:30:05;;;;;;;0.80;0.80;;;22.10;99.90;;;;;;4955740;28;20494;-69
2022/09/11 13:32:32;;;;;;;0.80;0.80;;;22.00;99.90;;;;;;4957738;28;20470;-69
2022/09/11 13:35:06;;;;;;;0.70;0.70;;;21.90;99.90;;;;;;4967204;28;21078;-70
2022/09/11 13:37:37;;;;;;;0.40;0.40;;;21.90;99.90;;;;;;4974432;28;20487;-70
2022/09/11 13:40:07;;;;;;;0.60;0.60;;;21.80;99.90;;;;;;4974964;28;20465;-70
2022/09/11 13:42:35;;;;;;;0.50;0.50;;;21.70;99.90;;;;;;4964073;28;20536;-68
2022/09/11 13:45:03;;;;;;;0.50;0.50;;;21.70;99.90;;;;;;4968629;28;20471;-69
2022/09/11 13:47:30;;;;;;;2.83;0.93;;;21.60;99.90;;;;;;4973512;28;20488;-69
2022/09/11 13:50:01;;;;;;;0.50;0.50;;;21.60;99.90;;;;;;4974720;28;20548;-69
2022/09/11 13:52:32;;;;;;;0.90;0.90;;;21.60;99.90;;;;;;4964682;28;20477;-69
2022/09/11 13:55:02;;;;;;;0.63;0.63;;;21.70;99.90;;;;;;4966606;28;20835;-69
2022/09/11 13:57:30;;;;;;;0.50;0.50;;;21.60;99.90;;;;;;4973940;28;20485;-69
2022/09/11 13:59:59;;;;;;;0.53;0.53;;;21.50;99.90;;;;;;4970306;28;20472;-69
2022/09/11 14:02:39;;;;;;;0.93;0.93;;;21.40;99.90;;;;;;4964434;28;20472;-68
2022/09/11 14:05:14;;;;;;;0.60;0.60;;;21.20;99.90;;;;;;4974201;28;20471;-68
2022/09/11 14:07:46;;;;;;;0.90;0.90;;;21.10;99.90;;;;;;4974087;28;20933;-68
2022/09/11 14:10:23;;;;;;;0.87;0.87;;;21.00;99.90;;;;;;4964455;28;20517;-70
2022/09/11 14:12:54;;;;;;;0.90;0.90;;;21.00;99.90;;;;;;4955864;28;20524;-69
2022/09/11 14:15:41;;;;;;;0.97;0.97;;;20.90;99.90;;;;;;4955158;28;20849;-69
2022/09/11 14:18:26;;;;;;;0.80;0.80;;;20.90;99.90;;;;;;4955103;28;20524;-70
2022/09/11 14:20:56;;;;;;;0.70;0.70;;;20.90;99.90;;;;;;4954918;28;20474;-70
2022/09/11 14:23:26;;;;;;;0.77;0.77;;;21.00;99.90;;;;;;4964203;28;20457;-70
2022/09/11 14:26:14;;;;;;;0.50;0.50;;;21.10;99.90;;;;;;4973407;28;20884;-70
2022/09/11 14:28:45;;;;;;;0.70;0.70;;;21.20;99.90;;;;;;4974363;28;20522;-70
2022/09/11 14:31:13;;;;;;;0.60;0.60;;;21.30;99.90;;;;;;4968794;28;20501;-70
2022/09/11 14:33:40;;;;;;;0.40;0.40;;;21.30;99.90;;;;;;4958245;28;20496;-70
2022/09/11 14:36:18;;;;;;;0.53;0.53;;;21.30;99.90;;;;;;4973788;28;20492;-70
2022/09/11 14:38:47;;;;;;;0.50;0.50;;;21.30;99.90;;;;;;4973884;28;20547;-70
2022/09/11 14:41:13;;;;;;;0.40;0.40;;;21.20;99.90;;;;;;4969148;28;20528;-70
2022/09/11 14:43:41;;;;;;;0.30;0.30;;;21.20;99.90;;;;;;4957976;28;20572;-70
2022/09/11 14:46:07;;;;;;;0.53;0.53;;;21.20;99.90;;;;;;4973600;28;20542;-70
2022/09/11 14:48:35;;;;;;;0.50;0.50;;;21.10;99.90;;;;;;4973579;28;20472;-70
2022/09/11 14:51:05;;;;;;;0.53;0.53;;;21.10;99.90;;;;;;4966847;28;20499;-69
2022/09/11 14:53:34;;;;;;;0.53;0.53;;;21.00;99.90;;;;;;4964912;28;20924;-69
2022/09/11 14:56:02;;;;;;;0.80;0.80;;;20.90;99.90;;;;;;4973094;28;20492;-70
2022/09/11 14:58:30;;;;;;;0.87;0.87;;;20.90;99.90;;;;;;4968201;28;20483;-69
2022/09/11 15:00:56;;;;;;;0.50;0.50;;;20.80;99.90;;;;;;4958482;28;20470;-70
2022/09/11 15:03:24;;;;;;;0.60;0.60;;;20.80;99.90;;;;;;4964943;28;20944;-69
2022/09/11 15:05:55;;;;;;;0.50;0.50;;;20.70;99.90;;;;;;4973514;28;20538;-69
2022/09/11 15:08:21;;;;;;;0.60;0.60;;;20.70;99.90;;;;;;4972890;28;20991;-69
2022/09/11 15:10:52;;;;;;;0.70;0.70;;;20.60;99.90;;;;;;4967684;28;20991;-69
2022/09/11 15:13:19;;;;;;;0.53;0.53;;;20.60;99.90;;;;;;4954511;28;21005;-71
2022/09/11 15:15:45;;;;;;;0.40;0.40;;;20.60;99.90;;;;;;4964558;28;20460;-71
2022/09/11 15:18:12;;;;;;;0.40;0.40;;;20.60;99.90;;;;;;4972894;28;20934;-72
2022/09/11 15:20:39;;;;;;;0.43;0.43;;;20.60;99.90;;;;;;4973063;28;20849;-71
2022/09/11 15:23:06;;;;;;;0.40;0.40;;;20.60;99.90;;;;;;4965253;28;21054;-70
2022/09/11 15:25:33;;;;;;;0.80;0.70;;;20.50;99.90;;;;;;4963703;28;20469;-70
2022/09/11 15:28:01;;;;;;;0.40;0.40;;;20.50;99.90;;;;;;4972518;28;20472;-70
2022/09/11 15:30:28;;;;;;;0.50;0.50;;;20.50;99.90;;;;;;4961097;28;20497;-70
2022/09/11 15:32:55;;;;;;;0.60;0.60;;;20.50;99.90;;;;;;4952068;28;20540;-70
2022/09/11 15:35:22;;;;;;;0.70;0.70;;;20.40;99.90;;;;;;4962397;28;20503;-70
2022/09/11 15:37:49;;;;;;;0.40;0.40;;;20.40;99.90;;;;;;4972260;28;20854;-69
2022/09/11 15:40:16;;;;;;;0.67;0.67;;;20.40;99.90;;;;;;4973211;28;20488;-69
2022/09/11 15:42:43;;;;;;;0.83;0.70;;;20.40;99.90;;;;;;4968481;28;20465;-69
2022/09/11 15:45:12;;;;;;;0.80;0.80;;;20.40;99.90;;;;;;4960426;28;20474;-69
2022/09/11 15:47:39;;;;;;;0.67;0.67;;;20.40;99.90;;;;;;4972504;28;20495;-69
2022/09/11 15:50:07;;;;;;;0.60;0.60;;;20.40;99.90;;;;;;4972601;28;20491;-70
2022/09/11 15:52:35;;;;;;;0.80;0.80;;;20.40;99.90;;;;;;4969659;28;20483;-70
2022/09/11 15:55:03;;;;;;;0.60;0.60;;;20.30;99.90;;;;;;4961304;28;20470;-70
2022/09/11 15:57:31;;;;;;;0.77;0.77;;;20.20;99.90;;;;;;4970592;28;21030;-70
2022/09/11 15:59:58;;;;;;;0.80;0.80;;;20.10;99.90;;;;;;4972844;28;20579;-70
2022/09/11 16:02:26;;;;;;;0.70;0.70;;;20.20;99.90;;;;;;4971834;28;20578;-70
2022/09/11 16:04:53;;;;;;;0.60;0.60;;;20.20;99.90;;;;;;4961845;28;20477;-70
2022/09/11 16:07:20;;;;;;;0.70;0.70;;;20.20;99.90;;;;;;4963553;28;20486;-70
2022/09/11 16:09:46;;;;;;;0.70;0.70;;;20.30;99.90;;;;;;4972166;28;20472;-70
2022/09/11 16:12:14;;;;;;;1.03;1.03;;;20.30;99.90;;;;;;4971440;28;20467;-70
2022/09/11 16:14:42;;;;;;;0.80;0.80;;;20.30;99.90;;;;;;4961191;28;21108;-70
2022/09/11 16:17:10;;;;;;;0.73;0.73;;;20.20;99.90;;;;;;4968090;28;20496;-71
2022/09/11 16:19:38;;;;;;;1.27;0.70;;;20.30;99.90;;;;;;4962279;28;20477;-71
2022/09/11 16:22:06;;;;;;;0.60;0.60;;;20.30;99.90;;;;;;4952315;28;20461;-70
2022/09/11 16:24:36;;;;;;;1.60;0.70;;;20.30;99.90;;;;;;4954683;28;20472;-71
2022/09/11 16:27:04;;;;;;;2.17;0.80;;;20.30;99.90;;;;;;4960063;28;20493;-71
2022/09/11 16:29:32;;;;;;;0.60;0.60;;;20.20;99.90;;;;;;4971035;28;20552;-71
2022/09/11 16:31:59;;;;;;;0.60;0.60;;;20.20;99.90;;;;;;4971989;28;20522;-70
2022/09/11 16:34:27;;;;;;;0.50;0.50;;;20.10;99.90;;;;;;4958430;28;20485;-71
2022/09/11 16:36:55;;;;;;;0.47;0.47;;;20.10;99.90;;;;;;4965567;28;20495;-71
2022/09/11 16:39:22;;;;;;;0.60;0.60;;;20.10;99.90;;;;;;4971745;28;20850;-71
2022/09/11 16:41:48;;;;;;;0.60;0.60;;;20.00;99.90;;;;;;4971869;28;20553;-72
2022/09/11 16:44:16;;;;;;;0.70;0.70;;;20.00;99.90;;;;;;4964351;28;20559;-71
2022/09/11 16:46:43;;;;;;;0.77;0.77;;;19.90;99.90;;;;;;4958668;28;21035;-72
2022/09/11 16:49:14;;;;;;;0.63;0.63;;;19.90;99.90;;;;;;4967775;28;20936;-72
2022/09/11 16:51:41;;;;;;;0.90;0.90;;;19.90;99.90;;;;;;4971500;28;21015;-72
2022/09/11 16:54:09;;;;;;;1.07;1.07;;;19.80;99.90;;;;;;4965184;28;20471;-72
2022/09/11 16:56:36;;;;;;;0.83;0.83;;;19.70;99.90;;;;;;4963187;28;20488;-72
2022/09/11 16:59:04;;;;;;;2.20;0.90;;;19.70;99.90;;;;;;4961522;28;20467;-72
2022/09/11 17:01:31;;;;;;;0.53;0.53;;;19.60;99.90;;;;;;4951986;28;20511;-71
2022/09/11 17:03:58;;;;;;;0.97;0.97;;;19.50;99.90;;;;;;4957609;28;20959;-72